Landels-Hill Big Creek Reserve Entrance, California Weather observations

Data are for 10 minute period ending at time listed.
 Day   Time   Solar   Ave.   Ave.  Ave.  Vector  Max.   Baro.   Total    
  of    of     Rad.   Air    Rel.  Wind   Wind   Wind  Press.  Precip.   
Year   Day            Temp.  Hum.  Speed  Dir.   Gust                    
2014   (PST)  Kw/m2    F      %     mph   deg.    mph    mb.     in.     
-------------------------------------------------------------------------
 108    6:00   0.00   52.7    92    0.0     0     0.0   1009.8    0.00 
 108    6:10   0.01   52.9    92    0.0     0     0.0   1010.0    0.00 
 108    6:20   0.01   53.0    92    0.2   151     1.3   1010.2    0.00 
 108    6:30   0.01   53.1    92    0.2   169     1.7   1010.3    0.00 
 108    6:40   0.01   53.1    91    0.8   145     2.3   1010.5    0.00 
 108    6:50   0.02   53.1    91    0.5   162     1.7   1010.7    0.00 
 108    7:00   0.03   53.1    91    0.5   150     1.8   1010.7    0.00 
 108    7:10   0.03   53.0    90    0.9   113     3.0   1010.7    0.00 
 108    7:20   0.04   52.9    90    1.4   327     3.6   1010.7    0.00 
 108    7:30   0.07   52.9    90    1.1   278     3.1   1010.7    0.00 
 108    7:40   0.09   53.3    90    0.2   284     0.9   1010.7    0.00 
 108    7:50   0.10   53.6    88    0.3   224     1.8   1010.8    0.00 
 108    8:00   0.10   54.0    87    0.5   250     2.1   1010.7    0.00 
 108    8:10   0.11   53.7    86    1.3   274     2.9   1010.7    0.00 
 108    8:20   0.10   53.8    87    0.5   291     1.8   1010.6    0.00 
 108    8:30   0.10   53.9    86    0.8   285     3.1   1010.6    0.00 
 108    8:40   0.12   53.5    86    1.9   280     5.4   1010.5    0.00 
 108    8:50   0.14   53.9    85    1.2   296     3.4   1010.5    0.00 
 108    9:00   0.14   54.4    84    1.1   300     3.1   1010.7    0.00 
 108    9:10   0.14   54.4    83    1.2   296     4.1   1010.7    0.00 
 108    9:20   0.15   54.2    83    1.0   268     3.1   1010.9    0.00 
 108    9:30   0.15   54.5    83    1.0   198     2.3   1011.0    0.00 
 108    9:40   0.16   54.6    82    0.8   228     2.4   1011.0    0.00 
 108    9:50   0.19   55.0    82    0.6   214     2.0   1011.0    0.00 
 108   10:00   0.21   54.9    81    1.6   233     3.1   1010.9    0.00 
 108   10:10   0.23   54.9    82    1.0   229     2.6   1010.9    0.00 
 108   10:20   0.25   54.8    82    2.0   238     3.5   1010.9    0.00 
 108   10:30   0.28   54.9    83    1.2   225     2.9   1010.8    0.00 
 108   10:40   0.28   55.6    80    0.9   206     2.6   1010.8    0.00 
 108   10:50   0.28   55.5    80    1.0   215     2.4   1010.8    0.00 
 108   11:00   0.29   55.7    80    1.3   212     3.8   1010.7    0.00 
 108   11:10   0.27   55.9    80    1.0   197     3.1   1010.7    0.00 
 108   11:20   0.28   55.7    81    1.0   134     3.3   1010.8    0.00 
 108   11:30   0.26   55.3    82    1.4   166     3.9   1010.9    0.00 
 108   11:40   0.24   55.0    81    2.8   140     6.8   1010.9    0.00 
 108   11:50   0.26   54.1    84    2.8   104     6.0   1010.9    0.00 
 108   12:00   0.29   55.0    82    2.7   188     6.2   1010.9    0.00 
 108   12:10   0.32   54.6    82    2.9   172     5.5   1010.9    0.00 
 108   12:20   0.27   54.9    81    3.0   180     7.4   1010.9    0.00 
 108   12:30   0.30   54.9    81    3.5   176     6.4   1011.0    0.00 
 108   12:40   0.32   55.1    81    2.5   176     6.4   1010.8    0.00 
 108   12:50   0.32   54.4    82    4.8   172    10.0   1010.9    0.00 
 108   13:00   0.22   53.8    84    5.8   130    13.2   1011.0    0.00 
 108   13:10   0.22   53.3    86    4.0   165    11.0   1011.0    0.00 
 108   13:20   0.26   53.9    85    2.6   167     5.6   1010.9    0.00 
 108   13:30   0.29   54.8    83    4.1   176     8.8   1010.9    0.00 
 108   13:40   0.26   54.9    81    3.7     4     7.5   1011.0    0.00 
 108   13:50   0.23   54.8    81    3.2   156     9.0   1011.0    0.00 
 108   14:00   0.23   54.8    81    2.9   170     7.5   1010.9    0.00 
 108   14:10   0.23   54.6    81    3.8   172    11.7   1010.8    0.00 
 108   14:20   0.21   54.3    82    3.9   174     9.9   1010.7    0.00 
 108   14:30   0.19   54.4    82    3.4   174     7.7   1010.6    0.00 
 108   14:40   0.18   54.2    82    4.4   167     9.1   1010.5    0.00 
 108   14:50   0.17   54.6    82    1.5   183     5.9   1010.4    0.00 
 108   15:00   0.15   54.7    80    3.6   154     7.7   1010.4    0.00 
 108   15:10   0.14   54.4    81    3.1   103     9.9   1010.4    0.00 
 108   15:20   0.17   54.0    82    4.6    73     9.6   1010.3    0.00 
 108   15:30   0.18   54.2    82    3.1    82    10.4   1010.3    0.00 
 108   15:40   0.15   54.7    80    3.4    65    10.2   1010.3    0.00 
 108   15:50   0.15   54.4    81    4.1    53     9.5   1010.3    0.00 
 108   16:00   0.15   54.4    80    4.4    58    10.2   1010.3    0.00 
 108   16:10   0.14   54.1    80    4.7    58    11.4   1010.3    0.00 
 108   16:20   0.15   53.9    81    4.4    58    10.4   1010.2    0.00 
 108   16:30   0.15   54.2    81    3.7    48     8.8   1010.2    0.00 
 108   16:40   0.11   54.0    81    4.3    58    11.0   1010.3    0.00 
 108   16:50   0.10   53.4    83    5.4    68    16.2   1010.4    0.00 
 108   17:00   0.10   53.4    83    4.8    63    12.1   1010.3    0.00 
 108   17:10   0.10   53.5    83    5.5    53    14.2   1010.3    0.00 
 108   17:20   0.09   53.5    83    3.8    57     8.6   1010.2    0.00 
 108   17:30   0.07   53.6    83    3.5    42     6.4   1010.4    0.00 
 108   17:40   0.05   53.3    83    5.5    61    10.4   1010.5    0.00 
 108   17:50   0.04   53.0    84    4.7    63    12.1   1010.5    0.00 
 108   18:00   0.04   53.0    85    2.9    42     6.9   1010.5    0.00 
 108   18:10   0.03   53.2    84    4.4    39     8.2   1010.5    0.00 
 108   18:20   0.01   53.1    84    3.8    38     8.0   1010.5    0.00 
 108   18:30   0.01   53.0    84    2.8    44     5.9   1010.5    0.00 
 108   18:40   0.01   53.0    84    2.5    40     6.6   1010.6    0.00 
 108   18:50   0.00   52.8    84    3.9    60     8.8   1010.8    0.00 
 108   19:00   0.00   52.8    84    3.3    66     7.2   1010.9    0.00 
 108   19:10   0.00   52.9    84    1.6    76     4.5   1011.1    0.00 
 108   19:20   0.00   53.0    83    1.9   132     5.1   1011.2    0.00 
 108   19:30   0.00   53.0    84    0.9   147     2.9   1011.2    0.00 
 108   19:40   0.00   53.0    84    0.3    69     1.8   1011.1    0.00 
 108   19:50   0.00   53.0    85    1.2   288     3.1   1011.1    0.00 
 108   20:00   0.00   52.7    86    2.1   277     5.2   1011.2    0.00 
 108   20:10   0.00   52.6    86    0.8   262     2.6   1011.2    0.00 
 108   20:20   0.00   52.8    85    2.7   266     8.0   1011.2    0.00 
 108   20:30   0.00   52.7    85    2.6   270     6.1   1011.4    0.00 
 108   20:40   0.00   52.8    85    3.0   260     6.9   1011.5    0.00 
 108   20:50   0.00   52.8    84    1.8   269     6.2   1011.3    0.00 
 108   21:00   0.00   52.7    85    3.0   257     7.2   1011.3    0.00 
 108   21:10   0.00   52.7    85    2.0   275     6.4   1011.2    0.00 
 108   21:20   0.00   52.6    85    0.9   338     2.8   1011.1    0.00 
 108   21:30   0.00   52.6    86    0.4   360     2.3   1011.1    0.00 
 108   21:40   0.00   52.4    86    1.8     8     6.9   1011.0    0.00 
 108   21:50   0.00   52.1    86    2.1   242     7.3   1010.9    0.00 
 108   22:00   0.00   52.0    86    1.0   340     7.5   1011.0    0.00 
 108   22:10   0.00   51.7    87    1.8   124     6.6   1011.2    0.00 
 108   22:20   0.00   51.7    87    1.3   225     4.7   1011.4    0.00 
 108   22:30   0.00   50.9    88    1.6    34     3.7   1011.3    0.00 
 108   22:40   0.00   50.3    89    1.2    61     3.1   1011.1    0.00 
 108   22:50   0.00   50.1    90    0.6    32     2.9   1011.5    0.00 
 108   23:00   0.00   50.5    91    1.5    20     3.9   1011.8    0.00 
 108   23:10   0.00   50.9    90    2.6   351     5.6   1011.9    0.00 
 108   23:20   0.00   50.2    90    2.7    33     4.3   1011.7    0.00 
 108   23:30   0.00   49.9    90    1.7    30     3.5   1011.8    0.00 
 108   23:40   0.00   49.8    90    1.3     8     2.5   1012.0    0.00 
 108   23:50   0.00   49.5    91    1.3    10     2.9   1012.2    0.00 
 109    0:00   0.00   49.7    91    1.4    21     3.6   1012.1    0.00 
 109    0:10   0.00   49.6    91    2.3    22     3.9   1012.1    0.00 
 109    0:20   0.00   49.3    92    1.6   350     4.1   1012.1    0.00 
 109    0:30   0.00   49.1    92    2.0    21     5.0   1012.1    0.00 
 109    0:40   0.00   49.2    92    2.0    15     5.8   1012.2    0.00 
 109    0:50   0.00   49.1    92    2.3    11     4.8   1012.2    0.00 
 109    1:00   0.00   49.4    92    2.2     6     5.3   1012.3    0.00 
 109    1:10   0.00   49.5    92    1.5    37     4.8   1012.0    0.00 
 109    1:20   0.00   49.7    92    1.0    27     2.6   1011.9    0.00 
 109    1:30   0.00   49.9    92    1.3    63     2.9   1011.9    0.00 
 109    1:40   0.00   50.1    92    1.1     5     3.0   1012.0    0.00 
 109    1:50   0.00   50.2    92    1.4   355     2.9   1012.1    0.00 
 109    2:00   0.00   50.3    92    1.1     6     2.7   1012.1    0.00 
 109    2:10   0.00   50.5    92    0.4    20     1.6   1012.1    0.00 
 109    2:20   0.00   50.6    92    0.6   360     2.4   1012.2    0.00 
 109    2:30   0.00   50.7    91    0.6    11     2.3   1012.2    0.00 
 109    2:40   0.00   50.8    91    0.6    30     2.1   1012.2    0.00 
 109    2:50   0.00   50.9    91    0.8    46     2.1   1012.4    0.00 
 109    3:00   0.00   51.2    90    1.3    37     3.9   1012.5    0.00 
 109    3:10   0.00   51.7    88    1.2    64     4.1   1012.3    0.00 
 109    3:20   0.00   51.8    87    0.3    28     1.2   1012.1    0.00 
 109    3:30   0.00   51.5    88    1.7    60     5.0   1012.3    0.00 
 109    3:40   0.00   51.6    86    3.4   126     7.0   1012.6    0.00 
 109    3:50   0.00   51.7    85    1.6    75     3.5   1012.7    0.00 
 109    4:00   0.00   51.5    85    1.2    41     3.0   1012.7    0.00 
 109    4:10   0.00   51.1    86    1.5    49     3.7   1012.7    0.00 
 109    4:20   0.00   51.0    86    0.8    40     3.0   1012.7    0.00 
 109    4:30   0.00   50.4    88    2.1    30     4.4   1012.6    0.00 
 109    4:40   0.00   50.3    88    1.8    40     3.9   1012.3    0.00 
 109    4:50   0.00   50.5    88    3.0    67     8.0   1012.4    0.00 
 109    5:00   0.00   51.2    84    1.2    82     4.4   1012.6    0.00 
 109    5:10   0.00   50.0    86    1.5    30     3.1   1012.9    0.00 
 109    5:20   0.00   49.3    89    2.6    31     4.5   1012.8    0.00 
 109    5:30   0.00   49.4    90    1.9    18     4.5   1012.6    0.00 
 109    5:40   0.01   49.2    90    1.4    18     3.7   1012.7    0.00 
 109    5:50   0.01   48.8    91    1.8    27     3.8   1012.8    0.00 

Return to Big Creek Reserve Entrance graphs page.


Western Regional Climate Center,wrcc@dri.edu